Portada
METAR-TAF:

METAR-TAF

Aeropuertos :

El Salvador, El Salvador

Aeropuerto Internacional de El Salvador

latitud: 13-26N, longitud: 089-03W, altitud: 25 m

Observación

El informe se hizo hace 35 minutos, a las 23:50 UTC
Viento 2 kt del suroeste
Temperatura 24°C
Humedad 89%
Presión 1009 hPa
Visibilidad 10 km o más
Escasas nubes a una altura de 7500 ft

METAR: MSLP 192350Z 23002KT 9999 FEW075 24/22 Q1009 A2980 NOSIG

Hora: 18:25 (00:25 UTC)

Pronóstico

El informe se hizo hace 3 horas y 0 minutos, a las 21:25 UTC
Pronóstico válido del 20 a las 00 UTC al 20 a las 24 UTC
Viento 6 kt del norte-noreste
Visibilidad 10 km o más
sin nubes por debajo de 1500 m y sin presencia de cumulonimbus.
A partir de las 20 a las 1900 UTC
Viento 8 kt del suroeste
Visibilidad 10 km o más
Escasas nubes a una altura de 7000 ft

TAF: MSLP 192125Z 2000/2024 02006KT CAVOK TX32/2018Z TN20/2010Z FM201900 22008KT 9999 FEW070

Observaciones y pronósticos meteorológicos de más de 4000 aeropuertos (mensajes METAR y TAF).

Los puntos amarillos y rojos representan las estaciones disponibles.

Ponga el ratón en el punto deseado para ver el nombre de la estación.

Haga clic para ver las observaciones y los pronósticos meteorológicos.

Para cambiar el mapa : haga clic en los botones verdes con una cruz de color negro para hacer un zoom, en el botón verde con un guión para alejar o en las flechas verdes para mapas adyacentes.


METAR-TAF: